createdAt,value
2022-10-06T00:02:03.293Z,75.44
2022-10-06T00:04:34.973Z,75.02
2022-10-06T00:07:06.886Z,74.87
2022-10-06T00:09:38.535Z,75.36
2022-10-06T00:12:10.281Z,75.59
2022-10-06T00:14:41.874Z,75.67
2022-10-06T00:17:13.482Z,75.71
2022-10-06T00:19:45.393Z,75.51
2022-10-06T00:22:20.031Z,75.90
2022-10-06T00:24:53.813Z,75.78
2022-10-06T00:27:25.389Z,75.27
2022-10-06T00:29:56.989Z,75.25
2022-10-06T00:32:28.569Z,75.19
2022-10-06T00:35:00.259Z,75.56
2022-10-06T00:37:36.791Z,75.04
2022-10-06T00:40:09.931Z,74.91
2022-10-06T00:42:59.413Z,74.86
2022-10-06T00:45:45.050Z,74.76
2022-10-06T00:48:23.224Z,74.56
2022-10-06T00:50:58.649Z,74.33
2022-10-06T00:53:31.889Z,74.18
2022-10-06T00:56:03.531Z,74.39
2022-10-06T00:58:38.057Z,74.45
2022-10-06T01:01:11.938Z,74.39
2022-10-06T01:04:09.283Z,74.06
2022-10-06T01:06:51.814Z,73.75
2022-10-06T01:09:24.054Z,73.81
2022-10-06T01:12:01.877Z,73.59
2022-10-06T01:14:39.203Z,73.98
2022-10-06T01:17:32.261Z,74.05
2022-10-06T01:20:15.240Z,74.21
2022-10-06T01:22:51.333Z,73.97
2022-10-06T01:25:23.402Z,74.46
2022-10-06T01:27:57.372Z,74.34
2022-10-06T01:30:41.905Z,74.49
2022-10-06T01:33:13.997Z,74.69
2022-10-06T01:35:49.137Z,74.54
2022-10-06T01:38:22.040Z,74.72
2022-10-06T01:40:57.439Z,74.79
2022-10-06T01:43:33.135Z,74.50
2022-10-06T01:46:05.008Z,74.75
2022-10-06T01:48:39.693Z,74.54
2022-10-06T01:51:16.126Z,74.47
2022-10-06T01:53:47.752Z,74.67
2022-10-06T01:56:22.166Z,74.50
2022-10-06T01:58:53.891Z,74.85
2022-10-06T02:01:25.524Z,74.72
2022-10-06T02:03:59.408Z,74.95
2022-10-06T02:06:31.511Z,74.51
2022-10-06T02:09:03.815Z,74.70
2022-10-06T02:11:38.672Z,74.72
2022-10-06T02:14:10.762Z,74.57
2022-10-06T02:16:43.293Z,74.93
2022-10-06T02:19:16.412Z,74.98
2022-10-06T02:21:48.209Z,74.93
2022-10-06T02:24:19.875Z,75.08
2022-10-06T02:26:52.567Z,75.03
2022-10-06T02:29:24.996Z,75.00
2022-10-06T02:31:57.503Z,75.18
2022-10-06T02:34:29.599Z,75.20
2022-10-06T02:37:02.769Z,75.38
2022-10-06T02:39:37.383Z,75.45
2022-10-06T02:42:09.077Z,75.36
2022-10-06T02:44:43.872Z,75.28
2022-10-06T02:47:16.036Z,75.78
2022-10-06T02:49:48.009Z,75.44
2022-10-06T02:52:21.306Z,75.83
2022-10-06T02:54:53.279Z,75.73
2022-10-06T02:57:24.908Z,76.36
2022-10-06T02:59:57.145Z,76.54
2022-10-06T03:02:32.742Z,75.81
2022-10-06T03:05:05.049Z,75.85
2022-10-06T03:07:38.172Z,75.53
2022-10-06T03:10:11.475Z,75.70
2022-10-06T03:12:43.273Z,76.11
2022-10-06T03:15:21.313Z,76.12
2022-10-06T03:17:53.028Z,75.90
2022-10-06T03:20:27.714Z,75.87
2022-10-06T03:23:03.173Z,75.78
2022-10-06T03:25:34.931Z,75.64
2022-10-06T03:28:06.934Z,75.98
2022-10-06T03:30:38.738Z,75.88
2022-10-06T03:33:13.650Z,75.82
2022-10-06T03:35:45.875Z,76.09
2022-10-06T03:38:18.171Z,76.40
2022-10-06T03:40:49.904Z,76.21
2022-10-06T03:43:21.542Z,76.27
2022-10-06T03:46:03.228Z,76.82
2022-10-06T03:48:36.877Z,76.46
2022-10-06T03:51:13.202Z,76.73
2022-10-06T03:53:50.680Z,76.51
2022-10-06T03:56:26.925Z,77.04
2022-10-06T03:59:04.075Z,77.22
2022-10-06T04:01:42.052Z,77.33
2022-10-06T04:04:15.848Z,77.32
2022-10-06T04:06:49.485Z,76.95
2022-10-06T04:09:23.719Z,77.24
2022-10-06T04:11:56.522Z,77.13
2022-10-06T04:14:28.140Z,76.89
2022-10-06T04:17:01.627Z,76.97
2022-10-06T04:19:43.009Z,76.99
2022-10-06T04:22:14.679Z,76.80
2022-10-06T04:24:47.069Z,76.66
2022-10-06T04:27:31.150Z,76.40
2022-10-06T04:30:09.442Z,76.42
2022-10-06T04:32:41.529Z,76.28
2022-10-06T04:35:13.241Z,76.23
2022-10-06T04:37:46.561Z,76.14
2022-10-06T04:40:18.856Z,76.42
2022-10-06T04:42:50.598Z,76.53
2022-10-06T04:45:22.218Z,76.59
2022-10-06T04:47:53.872Z,76.42
2022-10-06T04:50:26.371Z,76.61
2022-10-06T04:53:17.086Z,76.54
2022-10-06T04:55:57.168Z,76.75
2022-10-06T04:58:34.171Z,76.69
2022-10-06T05:01:15.796Z,76.70
2022-10-06T05:03:49.238Z,76.94
2022-10-06T05:06:25.006Z,76.96
2022-10-06T05:08:59.813Z,77.49
2022-10-06T05:11:34.462Z,77.73
2022-10-06T05:14:09.246Z,77.25
2022-10-06T05:16:44.633Z,77.56
2022-10-06T05:19:20.569Z,77.56
2022-10-06T05:21:55.350Z,77.34
2022-10-06T05:24:31.014Z,77.22
2022-10-06T05:27:03.940Z,77.35
2022-10-06T05:29:36.981Z,77.11
2022-10-06T05:32:14.054Z,77.19
2022-10-06T05:34:46.615Z,76.62
2022-10-06T05:37:18.539Z,76.64
2022-10-06T05:39:50.153Z,76.07
2022-10-06T05:42:24.135Z,74.72
2022-10-06T05:44:59.204Z,72.01
2022-10-06T05:47:30.964Z,68.07
2022-10-06T05:50:03.745Z,65.08
2022-10-06T05:52:38.770Z,60.46
2022-10-06T05:55:11.125Z,58.25
2022-10-06T05:57:43.664Z,55.80
2022-10-06T06:00:15.721Z,53.85
2022-10-06T06:02:50.167Z,51.72
2022-10-06T06:05:21.972Z,49.19
2022-10-06T06:07:53.934Z,46.52
2022-10-06T06:10:25.620Z,44.35
2022-10-06T06:12:57.532Z,41.98
2022-10-06T06:16:00.241Z,39.43
2022-10-06T06:18:34.116Z,37.41
2022-10-06T06:21:07.954Z,36.72
2022-10-06T06:23:59.553Z,33.83
2022-10-06T06:26:34.032Z,34.80
2022-10-06T06:29:06.695Z,34.49
2022-10-06T06:31:48.590Z,33.80
2022-10-06T06:34:20.837Z,33.23
2022-10-06T06:36:55.134Z,31.90
2022-10-06T06:39:27.235Z,30.02
2022-10-06T06:41:58.954Z,30.00
2022-10-06T06:44:58.940Z,31.02
2022-10-06T06:47:43.790Z,32.72
2022-10-06T06:50:18.773Z,32.06
2022-10-06T06:52:50.501Z,31.83
2022-10-06T06:55:22.247Z,32.38
2022-10-06T06:57:54.808Z,32.30
2022-10-06T07:00:27.048Z,31.92
2022-10-06T07:03:00.638Z,32.43
2022-10-06T07:05:34.922Z,32.52
2022-10-06T07:08:11.835Z,32.50
2022-10-06T07:10:45.086Z,32.49
2022-10-06T07:13:17.432Z,32.51
2022-10-06T07:16:08.861Z,32.41
2022-10-06T07:18:59.272Z,32.74
2022-10-06T07:21:50.621Z,32.97
2022-10-06T07:24:40.899Z,32.56
2022-10-06T07:27:13.127Z,33.62
2022-10-06T07:29:46.841Z,33.36
2022-10-06T07:32:21.171Z,33.04
2022-10-06T07:34:55.131Z,33.47
2022-10-06T07:37:29.007Z,33.69
2022-10-06T07:40:03.293Z,33.93
2022-10-06T07:42:48.730Z,34.05
2022-10-06T07:45:40.994Z,33.22
2022-10-06T07:48:21.493Z,32.99
2022-10-06T07:51:18.258Z,32.78
2022-10-06T07:53:50.790Z,32.96
2022-10-06T07:56:54.869Z,32.59
2022-10-06T07:59:26.852Z,32.77
2022-10-06T08:02:00.381Z,32.99
2022-10-06T08:04:32.002Z,33.45
2022-10-06T08:07:07.508Z,33.00
2022-10-06T08:09:39.157Z,33.18
2022-10-06T08:12:36.992Z,32.66
2022-10-06T08:15:11.395Z,32.69
2022-10-06T08:17:43.038Z,32.53
2022-10-06T08:20:15.786Z,32.99
2022-10-06T08:22:47.908Z,33.92
2022-10-06T08:25:20.313Z,33.79
2022-10-06T08:27:54.615Z,33.85
2022-10-06T08:30:28.872Z,33.94
2022-10-06T08:33:00.585Z,34.44
2022-10-06T08:35:33.075Z,34.17
2022-10-06T08:38:04.874Z,35.03
2022-10-06T08:40:41.111Z,34.69
2022-10-06T08:43:18.127Z,34.07
2022-10-06T08:45:52.898Z,34.61
2022-10-06T08:48:26.867Z,35.21
2022-10-06T08:51:29.353Z,35.40
2022-10-06T08:54:30.449Z,35.68
2022-10-06T08:57:25.059Z,36.02
2022-10-06T08:59:58.747Z,36.78
2022-10-06T09:02:42.098Z,37.43
2022-10-06T09:05:23.179Z,37.50
2022-10-06T09:08:25.548Z,38.10
2022-10-06T09:11:21.379Z,39.45
2022-10-06T09:14:01.571Z,39.78
2022-10-06T09:16:39.887Z,40.48
2022-10-06T09:19:24.552Z,41.30
2022-10-06T09:21:58.319Z,41.04
2022-10-06T09:24:37.400Z,42.10
2022-10-06T09:27:21.526Z,42.34
2022-10-06T09:29:53.532Z,42.65
2022-10-06T09:32:28.400Z,42.53
2022-10-06T09:35:00.121Z,42.41
2022-10-06T09:37:53.823Z,42.85
2022-10-06T09:40:49.205Z,43.25
2022-10-06T09:43:27.011Z,43.63
2022-10-06T09:46:28.876Z,44.89
2022-10-06T09:49:07.899Z,44.93
2022-10-06T09:51:39.585Z,45.04
2022-10-06T09:54:14.941Z,45.29
2022-10-06T09:56:47.272Z,45.58
2022-10-06T09:59:22.022Z,45.90
2022-10-06T10:01:55.403Z,45.87
2022-10-06T10:04:31.355Z,46.38
2022-10-06T10:07:26.735Z,47.29
2022-10-06T10:10:24.401Z,48.33
2022-10-06T10:12:58.677Z,49.63
2022-10-06T10:15:48.261Z,50.96
2022-10-06T10:18:26.823Z,51.75
2022-10-06T10:21:07.611Z,53.00
2022-10-06T10:23:55.268Z,52.78
2022-10-06T10:26:32.968Z,53.38
2022-10-06T10:29:33.356Z,54.02
2022-10-06T10:32:18.776Z,54.86
2022-10-06T10:35:08.488Z,55.96
2022-10-06T10:37:51.730Z,56.24
2022-10-06T10:40:37.409Z,56.82
2022-10-06T10:43:15.678Z,56.04
2022-10-06T10:45:52.258Z,56.09
2022-10-06T10:48:51.724Z,55.99
2022-10-06T10:51:29.366Z,56.06
2022-10-06T10:54:18.958Z,55.74
2022-10-06T10:56:52.720Z,55.46
2022-10-06T10:59:39.293Z,56.36
2022-10-06T11:02:13.159Z,56.16
2022-10-06T11:04:50.598Z,56.66
2022-10-06T11:07:44.336Z,56.11
2022-10-06T11:10:20.932Z,56.52
2022-10-06T11:13:11.189Z,56.41
2022-10-06T11:16:20.071Z,56.00
2022-10-06T11:19:41.941Z,56.47
2022-10-06T11:22:32.000Z,57.08
2022-10-06T11:25:23.403Z,57.56
2022-10-06T11:28:13.269Z,57.81
2022-10-06T11:31:03.838Z,58.64
2022-10-06T11:33:50.023Z,58.60
2022-10-06T11:36:40.097Z,58.71
2022-10-06T11:39:20.541Z,58.57
2022-10-06T11:42:25.867Z,58.54
2022-10-06T11:45:04.225Z,57.95
2022-10-06T11:48:03.805Z,57.14
2022-10-06T11:50:42.299Z,57.96
2022-10-06T11:53:31.960Z,57.72
2022-10-06T11:56:15.591Z,57.06
2022-10-06T11:59:09.868Z,57.39
2022-10-06T12:01:43.791Z,57.51
2022-10-06T12:04:19.531Z,57.83
2022-10-06T12:06:57.219Z,57.94
2022-10-06T12:09:31.925Z,56.75
2022-10-06T12:12:17.826Z,56.51
2022-10-06T12:18:27.473Z,57.03
2022-10-06T12:21:23.276Z,56.53
2022-10-06T12:24:19.265Z,55.87
2022-10-06T12:27:23.407Z,56.46
2022-10-06T12:30:03.470Z,55.76
2022-10-06T12:32:41.279Z,55.26
2022-10-06T12:35:16.861Z,54.41
2022-10-06T12:37:54.240Z,54.17
2022-10-06T12:40:40.325Z,53.37
2022-10-06T12:43:14.613Z,52.49
2022-10-06T12:46:17.021Z,52.89
2022-10-06T12:48:56.423Z,52.70
2022-10-06T12:51:41.112Z,52.36
2022-10-06T12:54:45.988Z,52.71
2022-10-06T12:57:28.571Z,53.31
2022-10-06T13:00:00.253Z,53.56
2022-10-06T13:02:32.162Z,53.41
2022-10-06T13:05:12.237Z,54.26
2022-10-06T13:08:20.028Z,54.20
2022-10-06T13:11:10.185Z,54.68
2022-10-06T13:13:54.129Z,54.54
2022-10-06T13:16:33.957Z,54.49
2022-10-06T13:19:06.436Z,55.04
2022-10-06T13:21:40.807Z,54.79
2022-10-06T13:24:14.487Z,54.54
2022-10-06T13:26:49.807Z,53.72
2022-10-06T13:29:25.016Z,52.89
2022-10-06T13:31:56.817Z,52.25
2022-10-06T13:34:33.284Z,50.10
2022-10-06T13:37:05.318Z,50.85
2022-10-06T13:39:40.244Z,50.72
2022-10-06T13:42:20.358Z,49.73
2022-10-06T13:45:00.927Z,49.86
2022-10-06T13:47:33.513Z,49.49
2022-10-06T13:50:08.482Z,49.58
2022-10-06T13:52:43.809Z,49.49
2022-10-06T13:55:22.055Z,49.84
2022-10-06T13:58:05.155Z,49.85
2022-10-06T14:01:00.824Z,49.50
2022-10-06T14:06:19.099Z,50.64
2022-10-06T14:08:55.081Z,50.68
2022-10-06T14:11:29.609Z,50.30
2022-10-06T14:14:02.289Z,50.04
2022-10-06T14:16:34.055Z,49.74
2022-10-06T14:19:06.311Z,49.90
2022-10-06T14:21:42.505Z,49.41
2022-10-06T14:24:17.931Z,49.50
2022-10-06T14:26:50.583Z,49.44
2022-10-06T14:29:26.439Z,49.04
2022-10-06T14:32:14.692Z,49.24
2022-10-06T14:34:47.290Z,49.18
2022-10-06T14:37:18.943Z,49.20
2022-10-06T14:39:51.035Z,49.21
2022-10-06T14:42:24.327Z,49.07
2022-10-06T14:44:56.229Z,48.76
2022-10-06T14:47:27.983Z,48.64
2022-10-06T14:49:59.666Z,48.52
2022-10-06T14:52:31.328Z,48.44
2022-10-06T14:55:07.906Z,48.48
2022-10-06T14:57:39.763Z,48.36
2022-10-06T15:00:11.886Z,48.23
2022-10-06T15:02:44.057Z,48.49
2022-10-06T15:05:16.107Z,48.38
2022-10-06T15:08:06.230Z,48.51
2022-10-06T15:10:39.128Z,48.81
2022-10-06T15:13:10.719Z,49.01
2022-10-06T15:15:42.501Z,49.16
2022-10-06T15:18:15.112Z,49.17
2022-10-06T15:20:47.941Z,49.20
2022-10-06T15:23:20.112Z,49.07
2022-10-06T15:26:11.401Z,49.07
2022-10-06T15:29:01.068Z,49.14
2022-10-06T15:31:58.668Z,49.21
2022-10-06T15:34:33.472Z,49.51
2022-10-06T15:37:06.251Z,49.51
2022-10-06T15:39:40.893Z,49.85
2022-10-06T15:42:12.635Z,50.00
2022-10-06T15:44:44.336Z,50.38
2022-10-06T15:47:15.947Z,50.73
2022-10-06T15:49:49.243Z,50.43
2022-10-06T15:52:20.864Z,50.71
2022-10-06T15:54:52.545Z,50.83
2022-10-06T15:57:25.359Z,51.72
2022-10-06T15:59:57.021Z,51.94
2022-10-06T16:02:35.183Z,51.63
2022-10-06T16:05:07.729Z,52.07
2022-10-06T16:07:39.397Z,52.45
2022-10-06T16:10:12.138Z,52.82
2022-10-06T16:12:46.656Z,53.00
2022-10-06T16:15:18.222Z,53.63
2022-10-06T16:17:50.132Z,53.42
2022-10-06T16:20:21.785Z,53.95
2022-10-06T16:22:56.434Z,54.26
2022-10-06T16:25:28.041Z,54.65
2022-10-06T16:27:59.802Z,55.02
2022-10-06T16:30:32.585Z,55.40
2022-10-06T16:33:04.282Z,55.88
2022-10-06T16:35:35.972Z,55.92
2022-10-06T16:38:07.566Z,56.24
2022-10-06T16:40:39.245Z,56.62
2022-10-06T16:43:10.912Z,56.86
2022-10-06T16:45:42.559Z,56.90
2022-10-06T16:48:14.204Z,57.33
2022-10-06T16:50:46.011Z,57.61
2022-10-06T16:53:18.658Z,58.18
2022-10-06T16:55:50.315Z,58.91
2022-10-06T16:58:21.978Z,58.95
2022-10-06T17:00:58.141Z,59.35
2022-10-06T17:03:29.966Z,59.82
2022-10-06T17:06:13.408Z,60.00
2022-10-06T17:08:45.254Z,59.98
2022-10-06T17:11:21.421Z,60.54
2022-10-06T17:13:58.010Z,61.07
2022-10-06T17:16:32.597Z,61.64
2022-10-06T17:19:04.549Z,61.96
2022-10-06T17:21:57.375Z,62.21
2022-10-06T17:24:29.242Z,62.67
2022-10-06T17:27:01.052Z,63.08
2022-10-06T17:29:32.878Z,63.28
2022-10-06T17:32:04.592Z,63.83
2022-10-06T17:34:36.271Z,64.09
2022-10-06T17:37:07.878Z,64.70
2022-10-06T17:39:41.549Z,64.61
2022-10-06T17:42:17.944Z,64.68
2022-10-06T17:44:49.572Z,64.85
2022-10-06T17:47:21.174Z,65.21
2022-10-06T17:49:52.846Z,65.32
2022-10-06T17:52:24.567Z,65.66
2022-10-06T17:54:57.150Z,66.01
2022-10-06T17:57:29.746Z,65.92
2022-10-06T18:00:01.383Z,66.17
2022-10-06T18:02:46.134Z,66.67
2022-10-06T18:05:17.889Z,66.84
2022-10-06T18:07:49.552Z,66.97
2022-10-06T18:10:40.569Z,67.37
2022-10-06T18:13:12.136Z,68.00
2022-10-06T18:15:43.838Z,68.21
2022-10-06T18:18:16.352Z,67.93
2022-10-06T18:20:48.294Z,68.65
2022-10-06T18:23:19.956Z,68.66
2022-10-06T18:25:51.602Z,69.02
2022-10-06T18:28:23.273Z,68.97
2022-10-06T18:30:55.008Z,69.11
2022-10-06T18:36:19.881Z,69.53
2022-10-06T18:38:55.243Z,69.50
2022-10-06T18:41:28.316Z,70.13
2022-10-06T18:44:07.440Z,70.21
2022-10-06T18:46:57.920Z,70.51
2022-10-06T18:49:29.974Z,70.73
2022-10-06T18:52:01.724Z,70.99
2022-10-06T18:54:33.348Z,71.48
2022-10-06T18:57:04.966Z,71.18
2022-10-06T18:59:37.742Z,71.21
2022-10-06T19:02:10.505Z,71.22
2022-10-06T19:04:42.695Z,71.35
2022-10-06T19:07:14.313Z,71.36
2022-10-06T19:09:47.038Z,72.01
2022-10-06T19:12:18.893Z,71.87
2022-10-06T19:14:51.175Z,72.22
2022-10-06T19:17:27.975Z,71.90
2022-10-06T19:19:59.742Z,72.03
2022-10-06T19:22:31.951Z,72.33
2022-10-06T19:25:05.312Z,72.37
2022-10-06T19:27:37.629Z,73.07
2022-10-06T19:30:13.581Z,73.02
2022-10-06T19:32:45.823Z,73.39
2022-10-06T19:35:18.379Z,73.13
2022-10-06T19:37:51.185Z,73.39
2022-10-06T19:40:25.777Z,73.28
2022-10-06T19:42:57.893Z,73.53
2022-10-06T19:45:29.688Z,73.67
2022-10-06T19:48:01.375Z,74.18
2022-10-06T19:50:33.488Z,73.83
2022-10-06T19:53:07.991Z,74.28
2022-10-06T19:55:43.530Z,74.20
2022-10-06T19:58:15.269Z,74.42
2022-10-06T20:00:50.290Z,74.26
2022-10-06T20:03:21.906Z,74.09
2022-10-06T20:05:53.569Z,74.26
2022-10-06T20:08:25.230Z,74.67
2022-10-06T20:11:05.107Z,75.00
2022-10-06T20:13:39.237Z,74.91
2022-10-06T20:16:17.208Z,74.81
2022-10-06T20:18:50.530Z,74.61
2022-10-06T20:21:30.035Z,74.68
2022-10-06T20:24:25.121Z,74.73
2022-10-06T20:26:56.728Z,74.89
2022-10-06T20:29:28.560Z,74.74
2022-10-06T20:32:00.375Z,75.04
2022-10-06T20:34:32.892Z,74.76
2022-10-06T20:37:05.355Z,74.55
2022-10-06T20:39:56.194Z,74.92
2022-10-06T20:42:28.654Z,75.16
2022-10-06T20:45:00.402Z,75.06
2022-10-06T20:47:33.277Z,75.00
2022-10-06T20:50:05.428Z,75.10
2022-10-06T20:52:38.685Z,75.36
2022-10-06T20:55:10.589Z,75.15
2022-10-06T20:57:45.598Z,75.24
2022-10-06T21:00:17.888Z,75.24
2022-10-06T21:02:56.021Z,75.38
2022-10-06T21:05:30.987Z,75.46
2022-10-06T21:08:02.613Z,75.29
2022-10-06T21:10:34.318Z,75.40
2022-10-06T21:13:05.986Z,75.64
2022-10-06T21:15:45.372Z,75.90
2022-10-06T21:18:18.548Z,75.90
2022-10-06T21:21:05.224Z,76.00
2022-10-06T21:23:40.271Z,75.64
2022-10-06T21:26:12.982Z,75.72
2022-10-06T21:28:44.958Z,75.49
2022-10-06T21:31:19.241Z,75.51
2022-10-06T21:33:51.884Z,75.45
2022-10-06T21:36:26.116Z,75.78
2022-10-06T21:38:59.074Z,75.92
2022-10-06T21:41:35.411Z,76.06
2022-10-06T21:44:11.548Z,76.04
2022-10-06T21:46:54.394Z,75.93
2022-10-06T21:49:29.627Z,75.84
2022-10-06T21:52:05.124Z,75.81
2022-10-06T21:54:39.607Z,75.82
2022-10-06T21:57:15.870Z,75.69
2022-10-06T21:59:47.690Z,75.86
2022-10-06T22:02:22.106Z,75.88
2022-10-06T22:04:54.050Z,76.45
2022-10-06T22:07:27.701Z,76.79
2022-10-06T22:09:59.330Z,76.63
2022-10-06T22:12:31.015Z,76.70
2022-10-06T22:15:02.967Z,76.92
2022-10-06T22:17:37.569Z,77.18
2022-10-06T22:20:09.895Z,76.89
2022-10-06T22:22:44.581Z,76.92
2022-10-06T22:25:16.078Z,77.42
2022-10-06T22:27:47.776Z,77.40
2022-10-06T22:30:20.523Z,77.30
2022-10-06T22:32:52.335Z,77.40
2022-10-06T22:35:23.945Z,77.02
2022-10-06T22:37:55.636Z,76.70
2022-10-06T22:40:27.654Z,77.41
2022-10-06T22:43:04.844Z,77.38
2022-10-06T22:45:36.457Z,77.09
2022-10-06T22:48:08.150Z,77.01
2022-10-06T22:50:39.908Z,77.32
2022-10-06T22:53:15.236Z,77.18
2022-10-06T22:55:47.890Z,77.24
2022-10-06T22:58:19.630Z,77.08
2022-10-06T23:00:51.629Z,77.33
2022-10-06T23:03:24.072Z,77.21
2022-10-06T23:05:58.558Z,77.46
2022-10-06T23:08:35.060Z,77.58
2022-10-06T23:11:10.478Z,77.19
2022-10-06T23:13:43.421Z,77.23
2022-10-06T23:16:17.212Z,77.46
2022-10-06T23:18:49.326Z,77.37
2022-10-06T23:21:24.128Z,77.02
2022-10-06T23:23:59.627Z,77.34
2022-10-06T23:26:32.055Z,77.38
2022-10-06T23:29:04.637Z,77.34
2022-10-06T23:31:36.630Z,77.36
2022-10-06T23:34:08.414Z,77.25
2022-10-06T23:36:40.022Z,77.62
2022-10-06T23:39:11.760Z,77.25
2022-10-06T23:41:43.477Z,76.98
2022-10-06T23:44:15.511Z,77.33
2022-10-06T23:46:47.220Z,76.84
2022-10-06T23:49:19.274Z,77.24
2022-10-06T23:51:50.940Z,76.77
2022-10-06T23:54:22.614Z,77.26
2022-10-06T23:56:55.643Z,77.53
2022-10-06T23:59:28.327Z,77.17
